createdAt,value
2018-01-31T04:32:35.055Z,83.40
2018-01-31T04:35:09.557Z,83.50
2018-01-31T04:37:43.329Z,83.40
2018-01-31T04:40:16.999Z,83.00
2018-01-31T04:42:50.821Z,82.80
2018-01-31T04:45:25.294Z,82.30
2018-01-31T04:47:59.085Z,82.30
2018-01-31T04:50:32.939Z,81.90
2018-01-31T04:53:06.840Z,82.10
2018-01-31T04:55:40.539Z,81.80
2018-01-31T04:58:36.526Z,81.50
2018-01-31T05:01:10.375Z,81.40
2018-01-31T05:03:44.989Z,81.70
2018-01-31T05:06:18.743Z,81.00
2018-01-31T05:08:52.611Z,82.30
2018-01-31T05:11:26.372Z,81.50
2018-01-31T05:14:00.932Z,82.40
2018-01-31T05:16:34.687Z,82.30
2018-01-31T05:19:09.140Z,82.70
2018-01-31T05:21:42.935Z,82.00
2018-01-31T05:24:17.505Z,82.10
2018-01-31T05:26:51.188Z,82.00
2018-01-31T05:29:25.807Z,80.90
2018-01-31T05:31:59.609Z,81.30
2018-01-31T05:34:34.215Z,81.70
2018-01-31T05:37:08.139Z,81.70
2018-01-31T05:39:41.999Z,81.40
2018-01-31T05:42:15.862Z,80.70
2018-01-31T05:44:50.401Z,81.40
2018-01-31T05:47:24.167Z,81.40
2018-01-31T05:49:58.715Z,81.40
2018-01-31T05:52:32.527Z,81.40
2018-01-31T05:55:06.347Z,81.20
2018-01-31T05:57:40.132Z,81.10
2018-01-31T06:00:14.860Z,81.00
2018-01-31T06:02:49.866Z,81.30
2018-01-31T06:05:23.707Z,81.60
2018-01-31T06:07:59.604Z,82.00
2018-01-31T06:10:33.347Z,82.00
2018-01-31T06:13:07.072Z,82.40
2018-01-31T06:15:40.667Z,82.10
2018-01-31T06:18:15.232Z,82.20
2018-01-31T06:20:49.025Z,82.10
2018-01-31T06:23:23.513Z,82.40
2018-01-31T06:25:57.411Z,82.20
2018-01-31T06:28:31.356Z,82.10
2018-01-31T06:31:06.131Z,82.60
2018-01-31T06:33:40.609Z,81.90
2018-01-31T06:36:14.395Z,81.90
2018-01-31T06:38:48.196Z,82.50
2018-01-31T06:41:21.959Z,82.30
2018-01-31T06:43:55.799Z,82.70
2018-01-31T06:46:30.212Z,82.30
2018-01-31T06:49:04.770Z,82.50
2018-01-31T06:51:39.583Z,81.20
2018-01-31T06:54:13.207Z,81.00
2018-01-31T06:56:47.031Z,81.10
2018-01-31T06:59:22.422Z,80.90
2018-01-31T07:01:57.050Z,81.00
2018-01-31T07:04:31.686Z,81.30
2018-01-31T07:07:05.416Z,81.30
2018-01-31T07:09:39.208Z,81.50
2018-01-31T07:12:12.951Z,81.20
2018-01-31T07:14:47.512Z,81.50
2018-01-31T07:17:22.496Z,81.50
2018-01-31T07:19:56.383Z,81.50
2018-01-31T07:22:30.094Z,82.60
2018-01-31T07:25:03.903Z,81.60
2018-01-31T07:27:37.716Z,81.60
2018-01-31T07:30:11.528Z,81.80
2018-01-31T07:32:45.315Z,81.80
2018-01-31T07:35:19.846Z,81.70
2018-01-31T07:37:53.525Z,81.70
2018-01-31T07:40:28.059Z,81.40
2018-01-31T07:43:01.828Z,81.40
2018-01-31T07:45:35.661Z,81.20
2018-01-31T07:48:09.348Z,81.10
2018-01-31T07:50:43.195Z,81.20
2018-01-31T07:53:16.967Z,80.90
2018-01-31T07:55:50.758Z,80.80
2018-01-31T07:58:25.195Z,80.40
2018-01-31T08:00:59.062Z,80.40
2018-01-31T08:03:33.629Z,80.80
2018-01-31T08:06:07.463Z,80.90
2018-01-31T08:08:41.178Z,80.40
2018-01-31T08:11:15.006Z,80.50
2018-01-31T08:13:48.839Z,80.30
2018-01-31T08:16:22.664Z,80.70
2018-01-31T08:18:56.387Z,80.30
2018-01-31T08:21:30.161Z,80.50
2018-01-31T08:24:04.607Z,80.00
2018-01-31T08:26:38.299Z,79.80
2018-01-31T08:29:12.152Z,79.70
2018-01-31T08:31:46.012Z,79.90
2018-01-31T08:34:19.695Z,79.60
2018-01-31T08:36:53.536Z,78.80
2018-01-31T08:39:27.261Z,78.90
2018-01-31T08:42:01.884Z,79.30
2018-01-31T08:44:35.575Z,79.30
2018-01-31T08:47:09.584Z,79.40
2018-01-31T08:49:43.435Z,80.30
2018-01-31T08:52:17.988Z,79.60
2018-01-31T08:54:52.129Z,79.70
2018-01-31T08:57:26.010Z,80.30
2018-01-31T08:59:59.883Z,78.90
2018-01-31T09:02:33.756Z,79.20
2018-01-31T09:05:08.371Z,78.80
2018-01-31T09:07:42.192Z,78.70
2018-01-31T09:10:16.040Z,79.50
2018-01-31T09:12:51.006Z,79.00
2018-01-31T09:15:24.612Z,78.30
2018-01-31T09:17:58.331Z,78.30
2018-01-31T09:20:32.016Z,78.40
2018-01-31T09:23:05.759Z,78.50
2018-01-31T09:25:40.319Z,79.00
2018-01-31T09:28:14.436Z,79.00
2018-01-31T09:30:48.184Z,78.60
2018-01-31T09:33:21.854Z,78.30
2018-01-31T09:35:56.404Z,79.00
2018-01-31T09:38:30.096Z,78.90
2018-01-31T09:41:03.962Z,79.00
2018-01-31T09:43:37.782Z,78.10
2018-01-31T09:46:11.547Z,78.80
2018-01-31T09:48:45.287Z,78.60
2018-01-31T09:51:19.068Z,78.40
2018-01-31T09:53:52.699Z,78.60
2018-01-31T09:56:26.563Z,78.80
2018-01-31T09:59:00.359Z,78.30
2018-01-31T10:01:35.343Z,78.40
2018-01-31T10:04:09.904Z,77.50
2018-01-31T10:06:44.720Z,77.50
2018-01-31T10:09:18.560Z,76.60
2018-01-31T10:11:52.255Z,76.70
2018-01-31T10:14:26.662Z,76.20
2018-01-31T10:17:00.509Z,76.20
2018-01-31T10:19:35.067Z,73.80
2018-01-31T10:22:08.887Z,73.80
2018-01-31T10:24:42.665Z,74.10
2018-01-31T10:27:16.315Z,74.20
2018-01-31T10:29:50.203Z,74.30
2018-01-31T10:32:23.936Z,74.40
2018-01-31T10:34:58.615Z,75.10
2018-01-31T10:37:32.754Z,75.10
2018-01-31T10:40:07.129Z,75.80
2018-01-31T10:42:41.608Z,76.50
2018-01-31T10:45:15.296Z,76.50
2018-01-31T10:47:48.951Z,76.70
2018-01-31T10:50:23.424Z,77.70
2018-01-31T10:52:58.028Z,77.70
2018-01-31T10:57:28.722Z,77.60
2018-01-31T10:58:07.219Z,77.50
2018-01-31T11:00:41.031Z,77.90
2018-01-31T11:03:15.849Z,76.90
2018-01-31T11:05:49.639Z,76.80
2018-01-31T11:08:24.256Z,76.60
2018-01-31T11:10:57.980Z,76.60
2018-01-31T11:13:33.420Z,77.30
2018-01-31T11:16:07.210Z,77.30
2018-01-31T11:18:40.919Z,77.00
2018-01-31T11:21:15.439Z,78.20
2018-01-31T11:23:49.280Z,78.30
2018-01-31T11:26:23.064Z,80.90
2018-01-31T11:28:56.848Z,81.00
2018-01-31T11:31:30.480Z,80.50
2018-01-31T11:34:04.632Z,79.30
2018-01-31T11:36:38.494Z,78.30
2018-01-31T11:39:13.011Z,79.00
2018-01-31T11:41:47.662Z,78.40
2018-01-31T11:44:21.353Z,78.40
2018-01-31T11:46:55.184Z,78.60
2018-01-31T11:49:30.488Z,78.60
2018-01-31T11:52:05.108Z,78.70
2018-01-31T11:54:38.928Z,78.70
2018-01-31T11:57:12.595Z,79.40
2018-01-31T11:59:46.436Z,79.30
2018-01-31T12:02:20.188Z,79.60
2018-01-31T12:04:55.067Z,79.40
2018-01-31T12:07:30.091Z,78.60
2018-01-31T12:10:05.447Z,79.60
2018-01-31T12:12:50.880Z,79.20
2018-01-31T12:15:24.891Z,78.20
2018-01-31T12:17:58.664Z,78.40
2018-01-31T12:20:45.042Z,78.20
2018-01-31T12:23:34.169Z,78.90
2018-01-31T12:26:23.524Z,79.30
2018-01-31T12:29:12.241Z,79.40
2018-01-31T12:32:00.344Z,79.40
2018-01-31T12:34:45.923Z,80.00
2018-01-31T12:37:31.623Z,79.60
2018-01-31T12:40:04.907Z,79.10
2018-01-31T12:42:39.056Z,79.60
2018-01-31T12:45:12.339Z,80.30
2018-01-31T12:47:52.970Z,79.60
2018-01-31T12:50:39.312Z,79.30
2018-01-31T12:53:25.060Z,79.30
2018-01-31T12:56:10.934Z,79.00
2018-01-31T12:58:50.851Z,78.90
2018-01-31T13:04:49.080Z,78.20
2018-01-31T13:07:44.564Z,78.30
2018-01-31T13:10:30.063Z,78.10
2018-01-31T13:13:15.842Z,77.20
2018-01-31T13:16:04.492Z,77.00
2018-01-31T13:18:51.891Z,77.10
2018-01-31T13:35:08.051Z,78.10
2018-01-31T13:37:59.755Z,78.00
2018-01-31T13:40:45.688Z,78.20
2018-01-31T13:43:33.811Z,78.70
2018-01-31T13:46:20.954Z,78.30
2018-01-31T13:49:06.443Z,78.30
2018-01-31T13:51:52.316Z,78.60
2018-01-31T13:54:38.933Z,78.20
2018-01-31T13:57:30.505Z,78.40
2018-01-31T14:00:21.262Z,78.40
2018-01-31T14:06:24.155Z,77.90
2018-01-31T14:12:33.601Z,77.60
2018-01-31T14:15:40.530Z,78.70
2018-01-31T14:18:38.143Z,78.70
2018-01-31T14:21:31.077Z,79.20
2018-01-31T14:24:20.491Z,79.20
2018-01-31T14:27:17.965Z,78.90
2018-01-31T14:30:07.722Z,78.80
2018-01-31T14:32:57.799Z,78.90
2018-01-31T14:38:36.650Z,79.60
2018-01-31T14:41:19.699Z,79.50
2018-01-31T14:44:02.392Z,79.40
2018-01-31T14:46:40.387Z,79.20
2018-01-31T14:49:19.721Z,79.50
2018-01-31T14:57:49.775Z,79.80
2018-01-31T15:00:31.483Z,79.80
2018-01-31T15:05:56.130Z,80.10
2018-01-31T15:08:32.863Z,80.50
2018-01-31T15:14:13.446Z,80.60
2018-01-31T15:16:54.438Z,81.00
2018-01-31T15:19:40.118Z,81.10
2018-01-31T15:22:24.872Z,80.90
2018-01-31T15:25:07.068Z,81.50
2018-01-31T15:27:57.871Z,81.50
2018-01-31T15:30:37.411Z,81.00
2018-01-31T15:33:28.627Z,81.10
2018-01-31T15:36:08.783Z,81.40
2018-01-31T15:38:49.849Z,81.40
2018-01-31T15:41:31.339Z,81.30
2018-01-31T15:52:51.489Z,81.00
2018-01-31T15:56:29.298Z,81.50
2018-01-31T16:01:54.327Z,81.30
2018-01-31T16:04:36.092Z,80.40
2018-01-31T16:07:20.480Z,80.40
2018-01-31T16:10:01.540Z,81.10
2018-01-31T16:15:31.065Z,81.50
2018-01-31T16:18:12.937Z,81.40
2018-01-31T16:21:07.733Z,81.10
2018-01-31T16:23:48.607Z,81.80
2018-01-31T16:29:30.145Z,81.70
2018-01-31T16:32:21.012Z,81.40
2018-01-31T16:35:01.424Z,81.40
2018-01-31T16:37:40.195Z,82.50
2018-01-31T16:40:23.111Z,81.90
2018-01-31T16:43:14.016Z,81.30
2018-01-31T16:45:52.481Z,81.20
2018-01-31T16:48:40.900Z,81.20
2018-01-31T16:51:23.283Z,80.60
2018-01-31T16:54:03.027Z,80.30
2018-01-31T16:56:45.363Z,79.40
2018-01-31T16:59:26.610Z,79.00
2018-01-31T17:02:03.743Z,78.80
2018-01-31T17:04:45.594Z,78.10
2018-01-31T17:07:21.299Z,77.50
2018-01-31T17:10:02.265Z,76.80
2018-01-31T17:15:43.126Z,75.90
2018-01-31T17:18:27.406Z,75.50
2018-01-31T17:21:07.326Z,76.00
2018-01-31T17:23:48.750Z,75.30
2018-01-31T17:26:27.020Z,75.10
2018-01-31T17:29:07.584Z,75.10
2018-01-31T17:31:52.310Z,75.00
2018-01-31T17:34:34.585Z,76.40
2018-01-31T17:37:14.805Z,78.50
2018-01-31T17:39:56.803Z,84.60
2018-01-31T17:42:40.131Z,84.80
2018-01-31T17:45:29.295Z,85.90
2018-01-31T17:48:07.980Z,88.40
2018-01-31T17:50:48.069Z,88.60
2018-01-31T17:53:34.329Z,88.30
2018-01-31T17:56:19.331Z,90.10
2018-01-31T17:59:01.415Z,89.50
2018-01-31T18:01:41.284Z,89.50
2018-01-31T18:04:22.104Z,90.30
2018-01-31T18:07:03.332Z,90.30
2018-01-31T18:09:48.153Z,90.70
2018-01-31T18:12:35.380Z,90.60
2018-01-31T18:15:10.146Z,91.10
2018-01-31T18:17:54.356Z,91.80
2018-01-31T18:20:38.131Z,91.30
2018-01-31T18:23:20.746Z,92.00
2018-01-31T18:25:58.881Z,91.90
2018-01-31T18:31:39.801Z,92.30
2018-01-31T18:34:15.901Z,92.40
2018-01-31T18:37:03.226Z,92.60
2018-01-31T18:39:43.275Z,93.30
2018-01-31T18:42:23.658Z,92.60
2018-01-31T18:47:47.993Z,92.20
2018-01-31T18:50:43.043Z,92.70
2018-01-31T18:53:26.610Z,93.20
2018-01-31T18:56:05.246Z,92.90
2018-01-31T18:58:46.486Z,93.10
2018-01-31T19:01:27.127Z,93.10
2018-01-31T19:07:07.327Z,93.40
2018-01-31T19:09:53.056Z,93.50
2018-01-31T19:12:38.890Z,93.50
2018-01-31T19:15:21.910Z,93.40
2018-01-31T19:18:03.277Z,93.60
2018-01-31T19:21:01.835Z,93.70
2018-01-31T19:23:52.278Z,93.70
2018-01-31T19:26:38.836Z,93.90
2018-01-31T19:29:25.021Z,94.20
2018-01-31T19:32:08.041Z,94.20
2018-01-31T20:17:02.622Z,95.10
2018-01-31T20:19:36.576Z,95.10
2018-01-31T20:22:10.334Z,95.10
2018-01-31T20:24:44.962Z,94.70
2018-01-31T20:27:19.508Z,94.90
2018-01-31T20:29:53.208Z,94.90
2018-01-31T20:32:27.104Z,94.90
2018-01-31T20:35:00.890Z,94.90
2018-01-31T20:37:34.784Z,95.00
2018-01-31T20:40:09.430Z,95.30
2018-01-31T20:42:43.282Z,95.20
2018-01-31T20:45:17.820Z,94.80
2018-01-31T20:47:51.692Z,94.70
2018-01-31T20:50:25.413Z,95.20
2018-01-31T20:52:59.259Z,95.00
2018-01-31T20:55:33.165Z,95.70
2018-01-31T20:58:07.105Z,95.50
2018-01-31T21:00:41.685Z,95.50
2018-01-31T21:03:16.529Z,95.50
2018-01-31T21:05:50.343Z,95.50
2018-01-31T21:08:25.600Z,95.50
2018-01-31T21:11:00.109Z,95.50
2018-01-31T21:13:33.996Z,95.50
2018-01-31T21:16:07.780Z,95.40
2018-01-31T21:18:42.585Z,95.70
2018-01-31T21:21:16.276Z,95.70
2018-01-31T21:23:50.248Z,96.10
2018-01-31T21:26:24.209Z,96.00
2018-01-31T21:28:58.832Z,96.20
2018-01-31T21:31:32.708Z,96.20
2018-01-31T21:34:07.168Z,96.40
2018-01-31T21:36:40.971Z,96.40
2018-01-31T21:39:14.901Z,96.50
2018-01-31T21:41:49.476Z,96.60
2018-01-31T21:44:23.192Z,96.50
2018-01-31T21:46:56.976Z,96.50
2018-01-31T21:49:30.813Z,96.60
2018-01-31T21:52:04.613Z,96.50
2018-01-31T21:54:39.123Z,96.60
2018-01-31T21:57:13.006Z,96.80
2018-01-31T21:59:46.697Z,96.70
